sensor_id;sensor_type;location;lat;lon;timestamp;P1;durP1;ratioP1;P2;durP2;ratioP2
5277;SDS011;2662;51.194;6.614;2022-12-07T00:01:50;32.07;;;15.70;;
5277;SDS011;2662;51.194;6.614;2022-12-07T00:04:17;28.17;;;15.47;;
5277;SDS011;2662;51.194;6.614;2022-12-07T00:06:45;31.17;;;14.37;;
5277;SDS011;2662;51.194;6.614;2022-12-07T00:09:16;33.23;;;14.53;;
5277;SDS011;2662;51.194;6.614;2022-12-07T00:11:43;25.60;;;13.97;;
5277;SDS011;2662;51.194;6.614;2022-12-07T00:14:13;29.20;;;14.53;;
5277;SDS011;2662;51.194;6.614;2022-12-07T00:16:41;34.13;;;14.60;;
5277;SDS011;2662;51.194;6.614;2022-12-07T00:19:09;24.20;;;14.10;;
5277;SDS011;2662;51.194;6.614;2022-12-07T00:21:37;23.83;;;12.57;;
5277;SDS011;2662;51.194;6.614;2022-12-07T00:24:04;25.00;;;14.37;;
5277;SDS011;2662;51.194;6.614;2022-12-07T00:26:32;22.30;;;13.53;;
5277;SDS011;2662;51.194;6.614;2022-12-07T00:29:01;26.37;;;13.17;;
5277;SDS011;2662;51.194;6.614;2022-12-07T00:31:31;28.17;;;14.13;;
5277;SDS011;2662;51.194;6.614;2022-12-07T00:34:00;25.73;;;14.50;;
5277;SDS011;2662;51.194;6.614;2022-12-07T00:36:27;26.80;;;13.67;;
5277;SDS011;2662;51.194;6.614;2022-12-07T00:38:54;23.60;;;13.07;;
5277;SDS011;2662;51.194;6.614;2022-12-07T00:41:21;23.43;;;13.40;;
5277;SDS011;2662;51.194;6.614;2022-12-07T00:43:49;22.37;;;12.80;;
5277;SDS011;2662;51.194;6.614;2022-12-07T00:46:17;23.53;;;13.07;;
5277;SDS011;2662;51.194;6.614;2022-12-07T00:48:46;22.80;;;13.50;;
5277;SDS011;2662;51.194;6.614;2022-12-07T00:51:14;28.70;;;12.70;;
5277;SDS011;2662;51.194;6.614;2022-12-07T00:53:42;24.17;;;13.50;;
5277;SDS011;2662;51.194;6.614;2022-12-07T00:56:11;20.67;;;12.53;;
5277;SDS011;2662;51.194;6.614;2022-12-07T00:58:39;24.80;;;12.80;;
5277;SDS011;2662;51.194;6.614;2022-12-07T01:01:06;24.97;;;14.23;;
5277;SDS011;2662;51.194;6.614;2022-12-07T01:03:34;21.37;;;12.73;;
5277;SDS011;2662;51.194;6.614;2022-12-07T01:06:03;36.97;;;12.90;;
5277;SDS011;2662;51.194;6.614;2022-12-07T01:08:31;30.90;;;13.90;;
5277;SDS011;2662;51.194;6.614;2022-12-07T01:10:59;27.47;;;13.40;;
5277;SDS011;2662;51.194;6.614;2022-12-07T01:13:26;27.50;;;14.20;;
5277;SDS011;2662;51.194;6.614;2022-12-07T01:15:56;22.83;;;14.07;;
5277;SDS011;2662;51.194;6.614;2022-12-07T01:18:24;23.77;;;14.30;;
5277;SDS011;2662;51.194;6.614;2022-12-07T01:20:58;21.80;;;13.03;;
5277;SDS011;2662;51.194;6.614;2022-12-07T01:23:27;23.97;;;12.97;;
5277;SDS011;2662;51.194;6.614;2022-12-07T01:25:55;23.90;;;13.13;;
5277;SDS011;2662;51.194;6.614;2022-12-07T01:28:22;24.27;;;13.73;;
5277;SDS011;2662;51.194;6.614;2022-12-07T01:30:56;29.73;;;14.17;;
5277;SDS011;2662;51.194;6.614;2022-12-07T01:33:27;23.00;;;13.63;;
5277;SDS011;2662;51.194;6.614;2022-12-07T01:35:59;21.10;;;12.87;;
5277;SDS011;2662;51.194;6.614;2022-12-07T01:38:28;23.10;;;14.07;;
5277;SDS011;2662;51.194;6.614;2022-12-07T01:40:55;24.33;;;13.97;;
5277;SDS011;2662;51.194;6.614;2022-12-07T01:43:23;25.37;;;13.93;;
5277;SDS011;2662;51.194;6.614;2022-12-07T01:45:51;19.83;;;12.90;;
5277;SDS011;2662;51.194;6.614;2022-12-07T01:48:19;22.20;;;12.87;;
5277;SDS011;2662;51.194;6.614;2022-12-07T01:50:50;26.13;;;13.00;;
5277;SDS011;2662;51.194;6.614;2022-12-07T01:53:19;25.10;;;13.67;;
5277;SDS011;2662;51.194;6.614;2022-12-07T01:55:49;23.87;;;13.73;;
5277;SDS011;2662;51.194;6.614;2022-12-07T01:58:19;22.63;;;12.93;;
5277;SDS011;2662;51.194;6.614;2022-12-07T02:00:46;22.63;;;13.10;;
5277;SDS011;2662;51.194;6.614;2022-12-07T02:03:14;26.00;;;14.10;;
5277;SDS011;2662;51.194;6.614;2022-12-07T02:05:45;23.33;;;14.50;;
5277;SDS011;2662;51.194;6.614;2022-12-07T02:08:14;25.17;;;13.13;;
5277;SDS011;2662;51.194;6.614;2022-12-07T02:10:41;25.73;;;14.70;;
5277;SDS011;2662;51.194;6.614;2022-12-07T02:13:10;25.20;;;14.13;;
5277;SDS011;2662;51.194;6.614;2022-12-07T02:15:42;28.83;;;14.03;;
5277;SDS011;2662;51.194;6.614;2022-12-07T02:18:16;27.93;;;13.53;;
5277;SDS011;2662;51.194;6.614;2022-12-07T02:20:51;23.80;;;14.40;;
5277;SDS011;2662;51.194;6.614;2022-12-07T02:29:54;26.07;;;14.40;;
5277;SDS011;2662;51.194;6.614;2022-12-07T02:32:26;23.80;;;14.27;;
5277;SDS011;2662;51.194;6.614;2022-12-07T02:34:57;23.03;;;13.23;;
5277;SDS011;2662;51.194;6.614;2022-12-07T02:37:32;28.30;;;14.13;;
5277;SDS011;2662;51.194;6.614;2022-12-07T02:40:05;30.17;;;14.50;;
5277;SDS011;2662;51.194;6.614;2022-12-07T02:42:36;23.83;;;14.53;;
5277;SDS011;2662;51.194;6.614;2022-12-07T02:45:10;25.13;;;13.70;;
5277;SDS011;2662;51.194;6.614;2022-12-07T02:47:39;30.63;;;13.17;;
5277;SDS011;2662;51.194;6.614;2022-12-07T02:50:08;31.23;;;13.90;;
5277;SDS011;2662;51.194;6.614;2022-12-07T02:52:35;22.80;;;13.57;;
5277;SDS011;2662;51.194;6.614;2022-12-07T02:55:02;23.93;;;13.07;;
5277;SDS011;2662;51.194;6.614;2022-12-07T02:57:34;25.83;;;13.20;;
5277;SDS011;2662;51.194;6.614;2022-12-07T03:00:13;22.63;;;13.40;;
5277;SDS011;2662;51.194;6.614;2022-12-07T03:02:46;20.77;;;13.43;;
5277;SDS011;2662;51.194;6.614;2022-12-07T03:05:26;21.90;;;13.90;;
5277;SDS011;2662;51.194;6.614;2022-12-07T03:08:11;27.30;;;13.50;;
5277;SDS011;2662;51.194;6.614;2022-12-07T03:10:42;27.20;;;13.67;;
5277;SDS011;2662;51.194;6.614;2022-12-07T03:13:19;23.97;;;12.80;;
5277;SDS011;2662;51.194;6.614;2022-12-07T03:15:53;25.17;;;13.63;;
5277;SDS011;2662;51.194;6.614;2022-12-07T03:18:24;19.50;;;13.13;;
5277;SDS011;2662;51.194;6.614;2022-12-07T03:20:55;24.27;;;13.30;;
5277;SDS011;2662;51.194;6.614;2022-12-07T03:23:26;21.23;;;13.53;;
5277;SDS011;2662;51.194;6.614;2022-12-07T03:25:55;23.53;;;12.17;;
5277;SDS011;2662;51.194;6.614;2022-12-07T03:28:26;23.90;;;12.97;;
5277;SDS011;2662;51.194;6.614;2022-12-07T03:30:59;25.17;;;13.63;;
5277;SDS011;2662;51.194;6.614;2022-12-07T03:33:31;24.20;;;13.13;;
5277;SDS011;2662;51.194;6.614;2022-12-07T03:36:04;25.27;;;13.30;;
5277;SDS011;2662;51.194;6.614;2022-12-07T03:38:35;19.93;;;13.20;;
5277;SDS011;2662;51.194;6.614;2022-12-07T03:41:07;20.80;;;12.47;;
5277;SDS011;2662;51.194;6.614;2022-12-07T03:43:37;22.03;;;13.83;;
5277;SDS011;2662;51.194;6.614;2022-12-07T03:46:09;24.00;;;13.07;;
5277;SDS011;2662;51.194;6.614;2022-12-07T03:48:45;20.00;;;12.07;;
5277;SDS011;2662;51.194;6.614;2022-12-07T03:51:18;16.50;;;12.00;;
5277;SDS011;2662;51.194;6.614;2022-12-07T03:53:50;19.10;;;11.47;;
5277;SDS011;2662;51.194;6.614;2022-12-07T03:56:20;18.90;;;11.77;;
5277;SDS011;2662;51.194;6.614;2022-12-07T03:58:48;19.97;;;12.00;;
5277;SDS011;2662;51.194;6.614;2022-12-07T04:01:18;27.90;;;11.83;;
5277;SDS011;2662;51.194;6.614;2022-12-07T04:03:45;33.17;;;12.57;;
5277;SDS011;2662;51.194;6.614;2022-12-07T04:06:12;20.40;;;12.10;;
5277;SDS011;2662;51.194;6.614;2022-12-07T04:08:38;19.63;;;10.40;;
5277;SDS011;2662;51.194;6.614;2022-12-07T04:11:05;28.80;;;12.00;;
5277;SDS011;2662;51.194;6.614;2022-12-07T04:13:32;20.73;;;11.67;;
5277;SDS011;2662;51.194;6.614;2022-12-07T04:16:20;20.77;;;11.50;;
5277;SDS011;2662;51.194;6.614;2022-12-07T04:18:47;15.83;;;10.60;;
5277;SDS011;2662;51.194;6.614;2022-12-07T04:21:14;21.23;;;10.23;;
5277;SDS011;2662;51.194;6.614;2022-12-07T04:23:40;19.17;;;10.90;;
5277;SDS011;2662;51.194;6.614;2022-12-07T04:26:07;20.73;;;11.33;;
5277;SDS011;2662;51.194;6.614;2022-12-07T04:28:34;22.73;;;10.37;;
5277;SDS011;2662;51.194;6.614;2022-12-07T04:31:00;16.90;;;11.07;;
5277;SDS011;2662;51.194;6.614;2022-12-07T04:33:28;16.80;;;11.07;;
5277;SDS011;2662;51.194;6.614;2022-12-07T04:35:55;17.03;;;9.67;;
5277;SDS011;2662;51.194;6.614;2022-12-07T04:38:22;18.07;;;10.70;;
5277;SDS011;2662;51.194;6.614;2022-12-07T04:40:48;18.43;;;10.60;;
5277;SDS011;2662;51.194;6.614;2022-12-07T04:43:15;16.10;;;10.40;;
5277;SDS011;2662;51.194;6.614;2022-12-07T04:45:44;19.93;;;11.20;;
5277;SDS011;2662;51.194;6.614;2022-12-07T04:48:12;19.13;;;10.67;;
5277;SDS011;2662;51.194;6.614;2022-12-07T04:50:40;17.53;;;10.00;;
5277;SDS011;2662;51.194;6.614;2022-12-07T04:53:06;18.90;;;10.70;;
5277;SDS011;2662;51.194;6.614;2022-12-07T04:55:33;20.50;;;11.00;;
5277;SDS011;2662;51.194;6.614;2022-12-07T04:58:00;17.80;;;10.73;;
5277;SDS011;2662;51.194;6.614;2022-12-07T05:00:26;17.07;;;10.40;;
5277;SDS011;2662;51.194;6.614;2022-12-07T05:02:53;21.17;;;9.60;;
5277;SDS011;2662;51.194;6.614;2022-12-07T05:05:20;21.10;;;9.77;;
5277;SDS011;2662;51.194;6.614;2022-12-07T05:07:48;18.23;;;9.97;;
5277;SDS011;2662;51.194;6.614;2022-12-07T05:10:15;14.47;;;9.33;;
5277;SDS011;2662;51.194;6.614;2022-12-07T05:12:42;17.37;;;9.07;;
5277;SDS011;2662;51.194;6.614;2022-12-07T05:15:08;16.33;;;8.87;;
5277;SDS011;2662;51.194;6.614;2022-12-07T05:17:35;14.80;;;9.50;;
5277;SDS011;2662;51.194;6.614;2022-12-07T05:20:02;23.37;;;9.87;;
5277;SDS011;2662;51.194;6.614;2022-12-07T05:22:30;14.40;;;9.00;;
5277;SDS011;2662;51.194;6.614;2022-12-07T05:24:58;16.33;;;9.30;;
5277;SDS011;2662;51.194;6.614;2022-12-07T05:27:25;18.30;;;8.90;;
5277;SDS011;2662;51.194;6.614;2022-12-07T05:29:51;13.30;;;8.67;;
5277;SDS011;2662;51.194;6.614;2022-12-07T05:32:18;12.13;;;8.60;;
5277;SDS011;2662;51.194;6.614;2022-12-07T05:34:45;15.67;;;8.70;;
5277;SDS011;2662;51.194;6.614;2022-12-07T05:37:12;14.83;;;9.00;;
5277;SDS011;2662;51.194;6.614;2022-12-07T05:39:38;18.90;;;8.80;;
5277;SDS011;2662;51.194;6.614;2022-12-07T05:42:09;15.97;;;8.83;;
5277;SDS011;2662;51.194;6.614;2022-12-07T05:44:40;20.13;;;8.77;;
5277;SDS011;2662;51.194;6.614;2022-12-07T05:47:08;14.70;;;8.30;;
5277;SDS011;2662;51.194;6.614;2022-12-07T05:49:34;13.43;;;8.30;;
5277;SDS011;2662;51.194;6.614;2022-12-07T05:52:01;13.83;;;8.03;;
5277;SDS011;2662;51.194;6.614;2022-12-07T05:54:28;20.13;;;7.60;;
5277;SDS011;2662;51.194;6.614;2022-12-07T05:56:55;18.13;;;8.20;;
5277;SDS011;2662;51.194;6.614;2022-12-07T05:59:23;13.63;;;8.07;;
5277;SDS011;2662;51.194;6.614;2022-12-07T06:01:50;13.00;;;8.00;;
5277;SDS011;2662;51.194;6.614;2022-12-07T06:04:17;11.90;;;7.97;;
5277;SDS011;2662;51.194;6.614;2022-12-07T06:06:45;16.03;;;8.90;;
5277;SDS011;2662;51.194;6.614;2022-12-07T06:09:12;14.33;;;8.90;;
5277;SDS011;2662;51.194;6.614;2022-12-07T06:11:39;19.03;;;8.80;;
5277;SDS011;2662;51.194;6.614;2022-12-07T06:14:25;18.83;;;8.70;;
5277;SDS011;2662;51.194;6.614;2022-12-07T06:16:52;13.93;;;7.87;;
5277;SDS011;2662;51.194;6.614;2022-12-07T06:19:19;12.93;;;8.40;;
5277;SDS011;2662;51.194;6.614;2022-12-07T06:21:46;18.20;;;9.73;;
5277;SDS011;2662;51.194;6.614;2022-12-07T06:24:13;13.77;;;8.70;;
5277;SDS011;2662;51.194;6.614;2022-12-07T06:26:41;15.10;;;8.30;;
5277;SDS011;2662;51.194;6.614;2022-12-07T06:29:08;14.47;;;8.20;;
5277;SDS011;2662;51.194;6.614;2022-12-07T06:31:36;16.53;;;8.40;;
5277;SDS011;2662;51.194;6.614;2022-12-07T06:34:04;19.13;;;8.43;;
5277;SDS011;2662;51.194;6.614;2022-12-07T06:36:32;13.93;;;8.57;;
5277;SDS011;2662;51.194;6.614;2022-12-07T06:38:59;11.17;;;8.10;;
5277;SDS011;2662;51.194;6.614;2022-12-07T06:41:26;13.97;;;7.90;;
5277;SDS011;2662;51.194;6.614;2022-12-07T06:43:53;16.70;;;8.17;;
5277;SDS011;2662;51.194;6.614;2022-12-07T06:46:19;13.87;;;8.10;;
5277;SDS011;2662;51.194;6.614;2022-12-07T06:48:48;16.40;;;7.63;;
5277;SDS011;2662;51.194;6.614;2022-12-07T06:51:14;12.37;;;7.30;;
5277;SDS011;2662;51.194;6.614;2022-12-07T06:53:41;11.03;;;7.30;;
5277;SDS011;2662;51.194;6.614;2022-12-07T06:56:08;13.80;;;7.20;;
5277;SDS011;2662;51.194;6.614;2022-12-07T06:58:35;12.87;;;7.10;;
5277;SDS011;2662;51.194;6.614;2022-12-07T07:01:02;13.53;;;7.40;;
5277;SDS011;2662;51.194;6.614;2022-12-07T07:03:34;12.23;;;6.73;;
5277;SDS011;2662;51.194;6.614;2022-12-07T07:06:02;13.37;;;6.73;;
5277;SDS011;2662;51.194;6.614;2022-12-07T07:08:28;10.53;;;6.70;;
5277;SDS011;2662;51.194;6.614;2022-12-07T07:10:55;9.63;;;6.30;;
5277;SDS011;2662;51.194;6.614;2022-12-07T07:13:22;12.73;;;6.60;;
5277;SDS011;2662;51.194;6.614;2022-12-07T07:15:49;12.00;;;6.63;;
5277;SDS011;2662;51.194;6.614;2022-12-07T07:18:15;7.40;;;5.60;;
5277;SDS011;2662;51.194;6.614;2022-12-07T07:20:42;10.83;;;6.20;;
5277;SDS011;2662;51.194;6.614;2022-12-07T07:23:11;14.43;;;6.60;;
5277;SDS011;2662;51.194;6.614;2022-12-07T07:25:37;11.20;;;5.87;;
5277;SDS011;2662;51.194;6.614;2022-12-07T07:28:04;9.57;;;6.27;;
5277;SDS011;2662;51.194;6.614;2022-12-07T07:30:31;12.43;;;7.30;;
5277;SDS011;2662;51.194;6.614;2022-12-07T07:32:58;8.60;;;6.37;;
5277;SDS011;2662;51.194;6.614;2022-12-07T07:35:25;9.90;;;6.33;;
5277;SDS011;2662;51.194;6.614;2022-12-07T07:37:53;11.57;;;6.77;;
5277;SDS011;2662;51.194;6.614;2022-12-07T07:40:21;12.17;;;6.77;;
5277;SDS011;2662;51.194;6.614;2022-12-07T07:42:48;9.20;;;6.40;;
5277;SDS011;2662;51.194;6.614;2022-12-07T07:45:17;11.77;;;6.40;;
5277;SDS011;2662;51.194;6.614;2022-12-07T07:47:44;12.33;;;6.20;;
5277;SDS011;2662;51.194;6.614;2022-12-07T07:50:11;9.10;;;5.70;;
5277;SDS011;2662;51.194;6.614;2022-12-07T07:52:38;24.67;;;6.53;;
5277;SDS011;2662;51.194;6.614;2022-12-07T07:55:05;11.63;;;5.80;;
5277;SDS011;2662;51.194;6.614;2022-12-07T07:57:34;8.83;;;5.57;;
5277;SDS011;2662;51.194;6.614;2022-12-07T08:00:03;13.43;;;5.80;;
5277;SDS011;2662;51.194;6.614;2022-12-07T08:02:31;13.23;;;5.57;;
5277;SDS011;2662;51.194;6.614;2022-12-07T08:04:58;8.90;;;5.70;;
5277;SDS011;2662;51.194;6.614;2022-12-07T08:07:24;14.03;;;6.17;;
5277;SDS011;2662;51.194;6.614;2022-12-07T08:09:52;14.63;;;6.20;;
5277;SDS011;2662;51.194;6.614;2022-12-07T08:12:19;10.57;;;6.73;;
5277;SDS011;2662;51.194;6.614;2022-12-07T08:14:47;10.17;;;5.83;;
5277;SDS011;2662;51.194;6.614;2022-12-07T08:17:14;16.03;;;6.80;;
5277;SDS011;2662;51.194;6.614;2022-12-07T08:19:40;10.03;;;6.87;;
5277;SDS011;2662;51.194;6.614;2022-12-07T08:22:07;10.67;;;6.50;;
5277;SDS011;2662;51.194;6.614;2022-12-07T08:24:34;10.13;;;6.80;;
5277;SDS011;2662;51.194;6.614;2022-12-07T08:27:01;10.03;;;6.30;;
5277;SDS011;2662;51.194;6.614;2022-12-07T08:29:29;12.27;;;7.67;;
5277;SDS011;2662;51.194;6.614;2022-12-07T08:31:57;13.60;;;6.53;;
5277;SDS011;2662;51.194;6.614;2022-12-07T08:34:25;12.63;;;7.13;;
5277;SDS011;2662;51.194;6.614;2022-12-07T08:36:52;14.17;;;6.90;;
5277;SDS011;2662;51.194;6.614;2022-12-07T08:39:19;9.50;;;6.97;;
5277;SDS011;2662;51.194;6.614;2022-12-07T08:41:45;13.77;;;6.97;;
5277;SDS011;2662;51.194;6.614;2022-12-07T08:44:12;13.67;;;7.60;;
5277;SDS011;2662;51.194;6.614;2022-12-07T08:46:39;14.40;;;7.37;;
5277;SDS011;2662;51.194;6.614;2022-12-07T08:49:12;12.90;;;6.93;;
5277;SDS011;2662;51.194;6.614;2022-12-07T08:51:40;12.53;;;7.10;;
5277;SDS011;2662;51.194;6.614;2022-12-07T08:54:09;12.13;;;7.10;;
5277;SDS011;2662;51.194;6.614;2022-12-07T08:56:37;12.80;;;6.53;;
5277;SDS011;2662;51.194;6.614;2022-12-07T08:59:05;7.97;;;6.03;;
5277;SDS011;2662;51.194;6.614;2022-12-07T09:01:33;23.80;;;7.87;;
5277;SDS011;2662;51.194;6.614;2022-12-07T09:04:00;10.97;;;6.57;;
5277;SDS011;2662;51.194;6.614;2022-12-07T09:06:28;17.73;;;6.67;;
5277;SDS011;2662;51.194;6.614;2022-12-07T09:08:55;12.70;;;5.77;;
5277;SDS011;2662;51.194;6.614;2022-12-07T09:11:25;12.17;;;6.30;;
5277;SDS011;2662;51.194;6.614;2022-12-07T09:13:52;12.90;;;6.10;;
5277;SDS011;2662;51.194;6.614;2022-12-07T09:16:19;8.60;;;6.37;;
5277;SDS011;2662;51.194;6.614;2022-12-07T09:18:46;16.03;;;7.00;;
5277;SDS011;2662;51.194;6.614;2022-12-07T09:21:12;10.70;;;6.33;;
5277;SDS011;2662;51.194;6.614;2022-12-07T09:23:42;14.17;;;6.77;;
5277;SDS011;2662;51.194;6.614;2022-12-07T09:26:08;15.90;;;7.30;;
5277;SDS011;2662;51.194;6.614;2022-12-07T09:28:35;12.00;;;7.53;;
5277;SDS011;2662;51.194;6.614;2022-12-07T09:31:02;11.87;;;7.20;;
5277;SDS011;2662;51.194;6.614;2022-12-07T09:33:29;14.90;;;7.60;;
5277;SDS011;2662;51.194;6.614;2022-12-07T09:35:56;11.90;;;7.53;;
5277;SDS011;2662;51.194;6.614;2022-12-07T09:38:22;12.17;;;6.83;;
5277;SDS011;2662;51.194;6.614;2022-12-07T09:40:53;9.00;;;6.80;;
5277;SDS011;2662;51.194;6.614;2022-12-07T09:43:21;9.00;;;6.40;;
5277;SDS011;2662;51.194;6.614;2022-12-07T09:45:50;12.00;;;7.07;;
5277;SDS011;2662;51.194;6.614;2022-12-07T09:48:19;28.20;;;6.90;;
5277;SDS011;2662;51.194;6.614;2022-12-07T09:50:48;13.27;;;6.80;;
5277;SDS011;2662;51.194;6.614;2022-12-07T09:53:25;9.50;;;6.30;;
5277;SDS011;2662;51.194;6.614;2022-12-07T09:55:55;10.37;;;6.60;;
5277;SDS011;2662;51.194;6.614;2022-12-07T09:58:23;13.37;;;6.80;;
5277;SDS011;2662;51.194;6.614;2022-12-07T10:00:52;13.70;;;7.00;;
5277;SDS011;2662;51.194;6.614;2022-12-07T10:03:22;11.13;;;7.00;;
5277;SDS011;2662;51.194;6.614;2022-12-07T10:05:49;9.27;;;5.70;;
5277;SDS011;2662;51.194;6.614;2022-12-07T10:08:17;11.37;;;6.27;;
5277;SDS011;2662;51.194;6.614;2022-12-07T10:10:44;10.07;;;5.90;;
5277;SDS011;2662;51.194;6.614;2022-12-07T10:13:18;10.53;;;5.60;;
5277;SDS011;2662;51.194;6.614;2022-12-07T10:15:48;8.33;;;5.23;;
5277;SDS011;2662;51.194;6.614;2022-12-07T10:18:24;15.20;;;5.77;;
5277;SDS011;2662;51.194;6.614;2022-12-07T10:21:04;12.43;;;5.97;;
5277;SDS011;2662;51.194;6.614;2022-12-07T10:23:35;29.03;;;6.57;;
5277;SDS011;2662;51.194;6.614;2022-12-07T10:26:18;9.10;;;5.43;;
5277;SDS011;2662;51.194;6.614;2022-12-07T10:28:49;13.00;;;5.70;;
5277;SDS011;2662;51.194;6.614;2022-12-07T10:31:16;11.90;;;5.00;;
5277;SDS011;2662;51.194;6.614;2022-12-07T10:33:48;14.03;;;5.30;;
5277;SDS011;2662;51.194;6.614;2022-12-07T10:36:19;7.90;;;4.40;;
5277;SDS011;2662;51.194;6.614;2022-12-07T10:38:48;11.00;;;5.63;;
5277;SDS011;2662;51.194;6.614;2022-12-07T10:41:18;12.50;;;5.27;;
5277;SDS011;2662;51.194;6.614;2022-12-07T10:43:50;12.83;;;5.40;;
5277;SDS011;2662;51.194;6.614;2022-12-07T10:49:14;7.80;;;4.20;;
5277;SDS011;2662;51.194;6.614;2022-12-07T10:52:08;7.47;;;4.50;;
5277;SDS011;2662;51.194;6.614;2022-12-07T10:54:45;15.10;;;5.17;;
5277;SDS011;2662;51.194;6.614;2022-12-07T10:57:26;11.87;;;4.90;;
5277;SDS011;2662;51.194;6.614;2022-12-07T11:00:18;8.77;;;5.23;;
5277;SDS011;2662;51.194;6.614;2022-12-07T11:02:54;10.37;;;4.93;;
5277;SDS011;2662;51.194;6.614;2022-12-07T11:05:39;15.13;;;6.60;;
5277;SDS011;2662;51.194;6.614;2022-12-07T11:08:13;15.43;;;5.77;;
5277;SDS011;2662;51.194;6.614;2022-12-07T11:10:48;12.30;;;6.70;;
5277;SDS011;2662;51.194;6.614;2022-12-07T11:13:24;11.30;;;7.27;;
5277;SDS011;2662;51.194;6.614;2022-12-07T11:16:03;19.60;;;7.70;;
5277;SDS011;2662;51.194;6.614;2022-12-07T11:18:43;14.97;;;7.80;;
5277;SDS011;2662;51.194;6.614;2022-12-07T11:21:19;14.10;;;7.63;;
5277;SDS011;2662;51.194;6.614;2022-12-07T11:23:53;15.60;;;7.70;;
5277;SDS011;2662;51.194;6.614;2022-12-07T11:26:31;21.80;;;8.60;;
5277;SDS011;2662;51.194;6.614;2022-12-07T11:29:15;22.53;;;8.63;;
5277;SDS011;2662;51.194;6.614;2022-12-07T11:31:56;20.03;;;10.07;;
5277;SDS011;2662;51.194;6.614;2022-12-07T11:34:33;18.47;;;9.90;;
5277;SDS011;2662;51.194;6.614;2022-12-07T11:37:06;17.43;;;10.27;;
5277;SDS011;2662;51.194;6.614;2022-12-07T11:39:39;24.30;;;10.90;;
5277;SDS011;2662;51.194;6.614;2022-12-07T11:42:12;18.57;;;10.57;;
5277;SDS011;2662;51.194;6.614;2022-12-07T11:44:44;16.50;;;9.63;;
5277;SDS011;2662;51.194;6.614;2022-12-07T11:47:20;17.23;;;8.93;;
5277;SDS011;2662;51.194;6.614;2022-12-07T11:49:54;20.53;;;8.30;;
5277;SDS011;2662;51.194;6.614;2022-12-07T11:52:29;11.73;;;6.67;;
5277;SDS011;2662;51.194;6.614;2022-12-07T11:55:05;22.90;;;7.30;;
5277;SDS011;2662;51.194;6.614;2022-12-07T11:57:45;17.37;;;7.13;;
5277;SDS011;2662;51.194;6.614;2022-12-07T12:00:17;9.47;;;6.07;;
5277;SDS011;2662;51.194;6.614;2022-12-07T12:02:46;10.90;;;4.73;;
5277;SDS011;2662;51.194;6.614;2022-12-07T12:05:19;10.80;;;4.80;;
5277;SDS011;2662;51.194;6.614;2022-12-07T12:07:49;8.40;;;4.10;;
5277;SDS011;2662;51.194;6.614;2022-12-07T12:10:24;10.63;;;4.20;;
5277;SDS011;2662;51.194;6.614;2022-12-07T12:13:08;12.47;;;4.30;;
5277;SDS011;2662;51.194;6.614;2022-12-07T12:15:52;6.63;;;4.03;;
5277;SDS011;2662;51.194;6.614;2022-12-07T12:18:34;11.30;;;4.40;;
5277;SDS011;2662;51.194;6.614;2022-12-07T12:21:20;11.10;;;4.13;;
5277;SDS011;2662;51.194;6.614;2022-12-07T12:23:54;13.50;;;3.43;;
5277;SDS011;2662;51.194;6.614;2022-12-07T12:26:25;11.83;;;3.93;;
5277;SDS011;2662;51.194;6.614;2022-12-07T12:28:55;6.67;;;3.60;;
5277;SDS011;2662;51.194;6.614;2022-12-07T12:31:31;10.90;;;3.60;;
5277;SDS011;2662;51.194;6.614;2022-12-07T12:34:03;5.60;;;3.20;;
5277;SDS011;2662;51.194;6.614;2022-12-07T12:36:54;8.77;;;2.80;;
5277;SDS011;2662;51.194;6.614;2022-12-07T12:39:21;10.40;;;3.17;;
5277;SDS011;2662;51.194;6.614;2022-12-07T12:41:52;5.27;;;3.10;;
5277;SDS011;2662;51.194;6.614;2022-12-07T12:44:39;5.90;;;3.10;;
5277;SDS011;2662;51.194;6.614;2022-12-07T12:47:40;10.20;;;3.40;;
5277;SDS011;2662;51.194;6.614;2022-12-07T12:50:19;9.90;;;2.67;;
5277;SDS011;2662;51.194;6.614;2022-12-07T12:52:53;9.80;;;3.53;;
5277;SDS011;2662;51.194;6.614;2022-12-07T12:58:37;8.70;;;3.43;;
5277;SDS011;2662;51.194;6.614;2022-12-07T13:07:11;6.23;;;3.40;;
5277;SDS011;2662;51.194;6.614;2022-12-07T13:09:59;6.13;;;2.93;;
5277;SDS011;2662;51.194;6.614;2022-12-07T13:12:27;8.50;;;3.40;;
5277;SDS011;2662;51.194;6.614;2022-12-07T13:14:55;15.50;;;3.53;;
5277;SDS011;2662;51.194;6.614;2022-12-07T13:20:42;9.07;;;3.70;;
5277;SDS011;2662;51.194;6.614;2022-12-07T13:23:13;4.20;;;2.87;;
5277;SDS011;2662;51.194;6.614;2022-12-07T13:25:45;7.50;;;3.53;;
5277;SDS011;2662;51.194;6.614;2022-12-07T13:28:17;5.13;;;2.90;;
5277;SDS011;2662;51.194;6.614;2022-12-07T13:30:50;9.20;;;4.00;;
5277;SDS011;2662;51.194;6.614;2022-12-07T13:33:30;11.87;;;3.60;;
5277;SDS011;2662;51.194;6.614;2022-12-07T13:36:00;10.60;;;3.10;;
5277;SDS011;2662;51.194;6.614;2022-12-07T13:38:29;4.70;;;2.70;;
5277;SDS011;2662;51.194;6.614;2022-12-07T13:41:04;7.90;;;2.70;;
5277;SDS011;2662;51.194;6.614;2022-12-07T13:43:45;4.27;;;2.57;;
5277;SDS011;2662;51.194;6.614;2022-12-07T13:46:14;5.57;;;2.70;;
5277;SDS011;2662;51.194;6.614;2022-12-07T13:48:44;8.13;;;3.00;;
5277;SDS011;2662;51.194;6.614;2022-12-07T13:51:19;5.10;;;2.70;;
5277;SDS011;2662;51.194;6.614;2022-12-07T13:53:49;6.67;;;2.30;;
5277;SDS011;2662;51.194;6.614;2022-12-07T13:56:18;5.40;;;2.63;;
5277;SDS011;2662;51.194;6.614;2022-12-07T13:58:48;7.33;;;2.83;;
5277;SDS011;2662;51.194;6.614;2022-12-07T14:01:15;5.47;;;3.07;;
5277;SDS011;2662;51.194;6.614;2022-12-07T14:03:42;7.40;;;3.23;;
5277;SDS011;2662;51.194;6.614;2022-12-07T14:06:16;7.83;;;2.87;;
5277;SDS011;2662;51.194;6.614;2022-12-07T14:08:46;4.20;;;2.80;;
5277;SDS011;2662;51.194;6.614;2022-12-07T14:11:15;7.23;;;2.70;;
5277;SDS011;2662;51.194;6.614;2022-12-07T14:13:44;5.20;;;2.40;;
5277;SDS011;2662;51.194;6.614;2022-12-07T14:16:25;4.53;;;3.00;;
5277;SDS011;2662;51.194;6.614;2022-12-07T14:18:54;11.30;;;3.23;;
5277;SDS011;2662;51.194;6.614;2022-12-07T14:21:23;6.93;;;2.80;;
5277;SDS011;2662;51.194;6.614;2022-12-07T14:26:52;5.77;;;2.30;;
5277;SDS011;2662;51.194;6.614;2022-12-07T14:29:27;3.00;;;2.50;;
5277;SDS011;2662;51.194;6.614;2022-12-07T14:31:56;7.80;;;3.00;;
5277;SDS011;2662;51.194;6.614;2022-12-07T14:34:35;7.60;;;2.70;;
5277;SDS011;2662;51.194;6.614;2022-12-07T14:37:01;7.50;;;2.10;;
5277;SDS011;2662;51.194;6.614;2022-12-07T14:39:28;10.83;;;2.47;;
5277;SDS011;2662;51.194;6.614;2022-12-07T14:41:56;14.40;;;2.47;;
5277;SDS011;2662;51.194;6.614;2022-12-07T14:44:23;5.93;;;1.93;;
5277;SDS011;2662;51.194;6.614;2022-12-07T14:46:50;8.87;;;2.20;;
5277;SDS011;2662;51.194;6.614;2022-12-07T14:49:18;10.43;;;2.90;;
5277;SDS011;2662;51.194;6.614;2022-12-07T14:51:45;11.30;;;2.87;;
5277;SDS011;2662;51.194;6.614;2022-12-07T14:54:14;12.30;;;2.77;;
5277;SDS011;2662;51.194;6.614;2022-12-07T14:56:42;13.07;;;2.70;;
5277;SDS011;2662;51.194;6.614;2022-12-07T14:59:11;2.77;;;1.90;;
5277;SDS011;2662;51.194;6.614;2022-12-07T15:01:38;8.63;;;2.60;;
5277;SDS011;2662;51.194;6.614;2022-12-07T15:04:05;6.20;;;3.70;;
5277;SDS011;2662;51.194;6.614;2022-12-07T15:06:32;7.57;;;3.53;;
5277;SDS011;2662;51.194;6.614;2022-12-07T15:08:59;10.37;;;4.53;;
5277;SDS011;2662;51.194;6.614;2022-12-07T15:11:26;11.17;;;4.23;;
5277;SDS011;2662;51.194;6.614;2022-12-07T15:13:53;11.27;;;5.00;;
5277;SDS011;2662;51.194;6.614;2022-12-07T15:16:38;10.47;;;4.80;;
5277;SDS011;2662;51.194;6.614;2022-12-07T15:19:08;13.87;;;5.10;;
5277;SDS011;2662;51.194;6.614;2022-12-07T15:21:38;8.63;;;4.60;;
5277;SDS011;2662;51.194;6.614;2022-12-07T15:24:06;5.83;;;3.63;;
5277;SDS011;2662;51.194;6.614;2022-12-07T15:26:34;5.20;;;3.50;;
5277;SDS011;2662;51.194;6.614;2022-12-07T15:29:00;11.07;;;3.87;;
5277;SDS011;2662;51.194;6.614;2022-12-07T15:31:27;9.20;;;4.47;;
5277;SDS011;2662;51.194;6.614;2022-12-07T15:33:55;6.43;;;4.20;;
5277;SDS011;2662;51.194;6.614;2022-12-07T15:36:22;14.43;;;5.73;;
5277;SDS011;2662;51.194;6.614;2022-12-07T15:38:52;11.60;;;4.03;;
5277;SDS011;2662;51.194;6.614;2022-12-07T15:41:19;7.27;;;4.50;;
5277;SDS011;2662;51.194;6.614;2022-12-07T15:43:47;11.20;;;3.53;;